createdAt,value
2022-09-28T00:00:29.154Z,8.43
2022-09-28T00:02:57.760Z,8.44
2022-09-28T00:05:27.147Z,8.43
2022-09-28T00:07:54.473Z,8.46
2022-09-28T00:10:23.225Z,8.44
2022-09-28T00:12:50.626Z,8.45
2022-09-28T00:15:20.590Z,8.39
2022-09-28T00:17:47.751Z,8.40
2022-09-28T00:20:14.723Z,8.41
2022-09-28T00:22:41.575Z,8.43
2022-09-28T00:25:08.945Z,8.41
2022-09-28T00:27:35.730Z,8.41
2022-09-28T00:30:02.604Z,8.46
2022-09-28T00:32:30.081Z,8.46
2022-09-28T00:34:56.937Z,8.50
2022-09-28T00:37:23.797Z,8.59
2022-09-28T00:39:50.760Z,8.58
2022-09-28T00:42:21.878Z,8.55
2022-09-28T00:44:53.717Z,8.57
2022-09-28T00:47:26.014Z,8.60
2022-09-28T00:50:05.950Z,8.65
2022-09-28T00:52:53.416Z,8.62
2022-09-28T00:55:25.876Z,8.62
2022-09-28T00:57:56.800Z,8.68
2022-09-28T01:00:24.634Z,8.63
2022-09-28T01:02:51.674Z,8.61
2022-09-28T01:05:19.157Z,8.60
2022-09-28T01:07:46.898Z,8.63
2022-09-28T01:10:14.356Z,8.62
2022-09-28T01:12:41.185Z,8.61
2022-09-28T01:15:08.566Z,8.64
2022-09-28T01:17:44.423Z,8.62
2022-09-28T01:20:34.444Z,8.56
2022-09-28T01:23:30.351Z,8.51
2022-09-28T01:26:15.274Z,8.57
2022-09-28T01:28:44.030Z,8.54
2022-09-28T01:31:13.726Z,8.54
2022-09-28T01:33:44.357Z,8.56
2022-09-28T01:36:19.608Z,8.55
2022-09-28T01:38:55.907Z,8.54
2022-09-28T01:41:25.297Z,8.53
2022-09-28T01:43:55.535Z,8.54
2022-09-28T01:46:44.964Z,8.51
2022-09-28T01:49:31.899Z,8.49
2022-09-28T01:52:35.343Z,8.48
2022-09-28T01:55:16.937Z,8.48
2022-09-28T01:58:05.092Z,8.49
2022-09-28T02:00:32.913Z,8.51
2022-09-28T02:03:11.091Z,8.49
2022-09-28T02:05:56.972Z,8.49
2022-09-28T02:08:29.272Z,8.49
2022-09-28T02:11:13.901Z,8.50
2022-09-28T02:13:43.427Z,8.50
2022-09-28T02:16:21.915Z,8.45
2022-09-28T02:18:49.893Z,8.49
2022-09-28T02:21:24.212Z,8.49
2022-09-28T02:24:27.800Z,8.49
2022-09-28T02:27:00.427Z,8.49
2022-09-28T02:29:33.005Z,8.47
2022-09-28T02:32:00.274Z,8.48
2022-09-28T02:34:27.092Z,8.52
2022-09-28T02:36:54.141Z,8.55
2022-09-28T02:39:21.028Z,8.50
2022-09-28T02:41:54.908Z,8.47
2022-09-28T02:44:48.490Z,8.46
2022-09-28T02:47:28.486Z,8.45
2022-09-28T02:50:07.107Z,8.49
2022-09-28T02:52:49.837Z,8.47
2022-09-28T02:55:52.137Z,8.52
2022-09-28T02:58:55.490Z,8.43
2022-09-28T03:01:37.232Z,8.46
2022-09-28T03:04:23.083Z,8.47
2022-09-28T03:07:06.360Z,8.45
2022-09-28T03:09:52.333Z,8.42
2022-09-28T03:12:20.629Z,8.45
2022-09-28T03:14:47.653Z,8.47
2022-09-28T03:17:14.775Z,8.46
2022-09-28T03:19:42.008Z,8.45
2022-09-28T03:22:13.140Z,8.42
2022-09-28T03:24:40.029Z,8.43
2022-09-28T03:27:06.868Z,8.40
2022-09-28T03:29:34.598Z,8.37
2022-09-28T03:32:05.104Z,8.46
2022-09-28T03:34:31.804Z,8.48
2022-09-28T03:36:58.716Z,8.40
2022-09-28T03:39:30.156Z,8.36
2022-09-28T03:42:02.663Z,8.32
2022-09-28T03:47:58.307Z,8.18
2022-09-28T03:50:25.215Z,8.20
2022-09-28T03:52:51.943Z,8.21
2022-09-28T03:55:18.897Z,8.22
2022-09-28T03:57:59.941Z,8.17
2022-09-28T04:00:27.688Z,8.07
2022-09-28T04:02:55.253Z,7.98
2022-09-28T04:05:22.119Z,7.91
2022-09-28T04:07:48.959Z,7.90
2022-09-28T04:10:15.756Z,7.89
2022-09-28T04:12:42.513Z,7.85
2022-09-28T04:15:10.299Z,7.82
2022-09-28T04:17:40.065Z,7.78
2022-09-28T04:20:12.876Z,7.70
2022-09-28T04:22:48.395Z,7.77
2022-09-28T04:25:15.717Z,7.83
2022-09-28T04:28:01.147Z,7.78
2022-09-28T04:30:28.047Z,7.71
2022-09-28T04:32:54.861Z,7.64
2022-09-28T04:35:21.726Z,7.66
2022-09-28T04:37:48.695Z,7.64
2022-09-28T04:40:16.092Z,7.63
2022-09-28T04:42:43.187Z,7.63
2022-09-28T04:45:10.563Z,7.67
2022-09-28T04:47:41.870Z,7.65
2022-09-28T04:50:18.218Z,7.72
2022-09-28T04:53:03.889Z,7.75
2022-09-28T04:55:32.661Z,7.81
2022-09-28T04:58:04.281Z,7.84
2022-09-28T05:00:35.323Z,7.81
2022-09-28T05:03:09.228Z,7.81
2022-09-28T05:05:56.323Z,7.83
2022-09-28T05:08:38.300Z,7.83
2022-09-28T05:11:12.200Z,7.81
2022-09-28T05:13:41.945Z,7.83
2022-09-28T05:16:09.570Z,7.87
2022-09-28T05:18:58.594Z,7.90
2022-09-28T05:21:26.676Z,7.95
2022-09-28T05:23:56.388Z,7.98
2022-09-28T05:26:23.875Z,8.01
2022-09-28T05:28:51.193Z,8.02
2022-09-28T05:31:39.858Z,8.03
2022-09-28T05:34:18.260Z,8.04
2022-09-28T05:36:46.171Z,7.99
2022-09-28T05:39:13.226Z,7.95
2022-09-28T05:41:40.135Z,8.05
2022-09-28T05:44:07.127Z,8.08
2022-09-28T05:46:35.255Z,8.11
2022-09-28T05:49:02.470Z,8.14
2022-09-28T05:51:29.418Z,8.15
2022-09-28T05:54:05.734Z,8.15
2022-09-28T05:56:38.293Z,8.12
2022-09-28T05:59:07.738Z,8.24
2022-09-28T06:01:34.672Z,8.23
2022-09-28T06:04:02.583Z,8.23
2022-09-28T06:06:29.559Z,8.29
2022-09-28T06:08:56.953Z,8.30
2022-09-28T06:11:35.896Z,8.26
2022-09-28T06:14:09.448Z,8.28
2022-09-28T06:16:43.591Z,8.31
2022-09-28T06:19:12.641Z,8.35
2022-09-28T06:21:59.808Z,8.31
2022-09-28T06:24:27.327Z,8.39
2022-09-28T06:26:54.149Z,8.43
2022-09-28T06:29:21.834Z,8.49
2022-09-28T06:31:48.578Z,8.47
2022-09-28T06:34:15.614Z,8.57
2022-09-28T06:36:44.404Z,8.60
2022-09-28T06:39:11.243Z,8.64
2022-09-28T06:41:38.151Z,8.75
2022-09-28T06:44:14.119Z,8.79
2022-09-28T06:46:58.779Z,8.90
2022-09-28T06:49:41.520Z,9.00
2022-09-28T06:52:27.201Z,9.05
2022-09-28T06:55:24.723Z,9.09
2022-09-28T06:57:59.890Z,9.11
2022-09-28T07:00:28.077Z,9.17
2022-09-28T07:02:55.435Z,9.17
2022-09-28T07:05:46.265Z,9.14
2022-09-28T07:08:36.562Z,9.17
2022-09-28T07:11:27.094Z,9.24
2022-09-28T07:14:22.607Z,9.32
2022-09-28T07:17:12.494Z,9.40
2022-09-28T07:19:40.480Z,9.44
2022-09-28T07:22:08.171Z,9.49
2022-09-28T07:24:35.382Z,9.55
2022-09-28T07:27:23.396Z,9.64
2022-09-28T07:30:11.907Z,9.59
2022-09-28T07:33:04.340Z,9.52
2022-09-28T07:35:42.320Z,9.48
2022-09-28T07:38:13.168Z,9.47
2022-09-28T07:40:58.877Z,9.48
2022-09-28T07:43:26.098Z,9.64
2022-09-28T07:45:55.069Z,9.75
2022-09-28T07:48:25.269Z,9.74
2022-09-28T07:51:00.251Z,9.77
2022-09-28T07:53:32.566Z,9.71
2022-09-28T07:56:25.984Z,9.78
2022-09-28T07:59:04.006Z,9.79
2022-09-28T08:01:39.673Z,9.87
2022-09-28T08:04:09.144Z,9.80
2022-09-28T08:06:36.844Z,9.81
2022-09-28T08:09:05.573Z,9.82
2022-09-28T08:12:00.672Z,9.82
2022-09-28T08:14:48.234Z,9.81
2022-09-28T08:17:37.657Z,9.83
2022-09-28T08:20:27.916Z,9.87
2022-09-28T08:22:54.870Z,9.96
2022-09-28T08:25:22.110Z,10.05
2022-09-28T08:27:49.847Z,10.08
2022-09-28T08:30:20.223Z,10.06
2022-09-28T08:33:13.962Z,10.16
2022-09-28T08:35:44.454Z,10.22
2022-09-28T08:38:18.560Z,10.34
2022-09-28T08:41:31.728Z,10.48
2022-09-28T08:44:09.227Z,10.81
2022-09-28T08:47:00.021Z,10.86
2022-09-28T08:49:50.679Z,10.93
2022-09-28T08:52:35.892Z,10.93
2022-09-28T08:55:39.130Z,11.00
2022-09-28T08:58:13.945Z,11.09
2022-09-28T09:00:47.457Z,11.17
2022-09-28T09:03:21.164Z,11.29
2022-09-28T09:06:31.488Z,11.34
2022-09-28T09:09:33.151Z,11.42
2022-09-28T09:12:09.193Z,11.46
2022-09-28T09:14:44.560Z,11.50
2022-09-28T09:17:24.841Z,11.40
2022-09-28T09:20:41.503Z,11.46
2022-09-28T09:23:20.452Z,11.47
2022-09-28T09:25:55.086Z,11.47
2022-09-28T09:28:51.824Z,11.39
2022-09-28T09:31:43.041Z,11.40
2022-09-28T09:34:42.699Z,11.36
2022-09-28T09:37:58.621Z,11.37
2022-09-28T09:41:06.478Z,11.48
2022-09-28T09:44:26.889Z,11.44
2022-09-28T09:47:16.519Z,11.59
2022-09-28T09:50:05.465Z,11.64
2022-09-28T09:52:49.557Z,11.54
2022-09-28T09:55:29.830Z,11.59
2022-09-28T09:58:22.632Z,11.58
2022-09-28T10:00:59.775Z,11.58
2022-09-28T10:03:48.343Z,11.61
2022-09-28T10:06:20.930Z,11.59
2022-09-28T10:09:11.325Z,11.52
2022-09-28T10:11:44.146Z,11.57
2022-09-28T10:14:22.611Z,11.52
2022-09-28T10:17:01.542Z,11.47
2022-09-28T10:19:46.949Z,11.48
2022-09-28T10:22:44.966Z,11.47
2022-09-28T10:25:15.874Z,11.55
2022-09-28T10:27:47.631Z,11.63
2022-09-28T10:30:24.460Z,11.71
2022-09-28T10:32:55.237Z,11.80
2022-09-28T10:35:25.867Z,11.88
2022-09-28T10:38:15.059Z,11.84
2022-09-28T10:40:54.519Z,11.85
2022-09-28T10:43:38.746Z,11.91
2022-09-28T10:46:13.602Z,11.93
2022-09-28T10:49:18.094Z,12.00
2022-09-28T10:51:54.812Z,12.00
2022-09-28T10:54:27.112Z,12.05
2022-09-28T10:56:56.786Z,12.06
2022-09-28T10:59:39.296Z,12.22
2022-09-28T11:02:36.020Z,12.21
2022-09-28T11:05:30.113Z,12.37
2022-09-28T11:08:06.714Z,12.49
2022-09-28T11:10:41.125Z,12.46
2022-09-28T11:13:14.033Z,12.59
2022-09-28T11:15:44.765Z,12.51
2022-09-28T11:18:25.962Z,12.62
2022-09-28T11:20:53.057Z,12.63
2022-09-28T11:23:30.317Z,12.53
2022-09-28T11:26:06.404Z,12.46
2022-09-28T11:28:37.639Z,12.44
2022-09-28T11:31:12.020Z,12.19
2022-09-28T11:34:02.747Z,12.00
2022-09-28T11:37:00.952Z,12.04
2022-09-28T11:39:52.674Z,12.00
2022-09-28T11:42:44.727Z,11.98
2022-09-28T11:45:23.952Z,11.96
2022-09-28T11:48:02.212Z,11.89
2022-09-28T11:50:47.928Z,11.84
2022-09-28T11:53:25.446Z,11.80
2022-09-28T11:56:07.937Z,11.46
2022-09-28T11:58:40.476Z,11.58
2022-09-28T12:01:26.137Z,11.61
2022-09-28T12:04:16.629Z,11.66
2022-09-28T12:06:59.989Z,11.56
2022-09-28T12:09:37.420Z,11.65
2022-09-28T12:12:28.504Z,11.65
2022-09-28T12:15:00.602Z,11.71
2022-09-28T12:17:35.594Z,11.72
2022-09-28T12:20:05.520Z,11.69
2022-09-28T12:22:35.484Z,11.49
2022-09-28T12:25:04.364Z,11.59
2022-09-28T12:27:45.387Z,11.22
2022-09-28T12:30:13.820Z,11.08
2022-09-28T12:32:51.133Z,10.80
2022-09-28T12:35:33.571Z,10.75
2022-09-28T12:38:26.684Z,10.99
2022-09-28T12:41:11.561Z,11.11
2022-09-28T12:43:57.177Z,11.06
2022-09-28T12:46:51.976Z,11.12
2022-09-28T12:50:33.289Z,10.98
2022-09-28T12:52:29.521Z,10.97
2022-09-28T12:55:04.059Z,11.08
2022-09-28T12:57:48.804Z,10.88
2022-09-28T13:00:24.983Z,10.77
2022-09-28T13:03:13.474Z,10.70
2022-09-28T13:05:57.656Z,10.61
2022-09-28T13:08:33.700Z,10.73
2022-09-28T13:11:08.995Z,10.77
2022-09-28T13:13:49.538Z,10.76
2022-09-28T13:16:45.076Z,10.93
2022-09-28T13:19:18.556Z,11.03
2022-09-28T13:22:26.301Z,11.08
2022-09-28T13:24:55.393Z,11.24
2022-09-28T13:27:29.565Z,11.34
2022-09-28T13:30:00.835Z,11.59
2022-09-28T13:32:30.067Z,11.32
2022-09-28T13:34:57.147Z,11.47
2022-09-28T13:37:25.689Z,11.62
2022-09-28T13:39:57.479Z,11.36
2022-09-28T13:42:33.649Z,11.32
2022-09-28T13:45:18.475Z,10.92
2022-09-28T13:47:51.779Z,10.89
2022-09-28T13:50:30.132Z,11.05
2022-09-28T13:53:04.175Z,11.04
2022-09-28T13:55:55.939Z,11.32
2022-09-28T13:58:44.796Z,11.66
2022-09-28T14:01:14.509Z,12.04
2022-09-28T14:03:44.764Z,11.96
2022-09-28T14:06:27.950Z,11.74
2022-09-28T14:09:12.097Z,11.74
2022-09-28T14:11:53.694Z,11.60
2022-09-28T14:14:26.178Z,11.68
2022-09-28T14:17:21.729Z,11.45
2022-09-28T14:20:12.765Z,11.57
2022-09-28T14:23:01.044Z,12.00
2022-09-28T14:25:30.911Z,12.37
2022-09-28T14:28:19.934Z,12.67
2022-09-28T14:30:50.099Z,12.73
2022-09-28T14:33:27.207Z,12.73
2022-09-28T14:35:58.753Z,12.74
2022-09-28T14:38:53.890Z,12.49
2022-09-28T14:41:33.863Z,12.25
2022-09-28T14:44:08.899Z,11.98
2022-09-28T14:46:42.307Z,11.99
2022-09-28T14:49:19.297Z,11.79
2022-09-28T14:51:56.199Z,12.05
2022-09-28T14:54:25.066Z,12.12
2022-09-28T14:56:51.883Z,12.09
2022-09-28T14:59:22.681Z,12.01
2022-09-28T15:02:01.199Z,12.02
2022-09-28T15:04:30.505Z,11.98
2022-09-28T15:07:03.696Z,12.07
2022-09-28T15:09:35.254Z,12.27
2022-09-28T15:12:07.760Z,11.83
2022-09-28T15:14:40.269Z,11.90
2022-09-28T15:17:11.665Z,11.72
2022-09-28T15:19:46.613Z,11.86
2022-09-28T15:22:17.303Z,11.82
2022-09-28T15:25:02.188Z,11.62
2022-09-28T15:27:37.748Z,11.35
2022-09-28T15:30:23.613Z,11.10
2022-09-28T15:32:50.591Z,11.00
2022-09-28T15:35:35.861Z,10.91
2022-09-28T15:38:04.287Z,10.93
2022-09-28T15:40:35.476Z,10.89
2022-09-28T15:43:02.597Z,10.77
2022-09-28T15:45:35.120Z,10.72
2022-09-28T15:48:27.383Z,10.71
2022-09-28T15:51:17.672Z,10.72
2022-09-28T15:53:50.738Z,10.59
2022-09-28T15:56:17.487Z,10.61
2022-09-28T15:58:44.309Z,10.53
2022-09-28T16:01:31.105Z,10.48
2022-09-28T16:03:58.073Z,10.52
2022-09-28T16:06:25.047Z,10.57
2022-09-28T16:08:51.898Z,10.56
2022-09-28T16:11:27.551Z,10.49
2022-09-28T16:14:17.673Z,10.40
2022-09-28T16:16:47.414Z,10.27
2022-09-28T16:19:24.251Z,10.17
2022-09-28T16:22:00.216Z,10.12
2022-09-28T16:24:32.774Z,10.12
2022-09-28T16:27:05.006Z,10.14
2022-09-28T16:29:42.211Z,10.08
2022-09-28T16:32:27.282Z,10.03
2022-09-28T16:35:18.763Z,10.00
2022-09-28T16:37:47.263Z,9.99
2022-09-28T16:40:14.025Z,9.94
2022-09-28T16:42:48.666Z,9.99
2022-09-28T16:45:23.921Z,9.97
2022-09-28T16:47:53.645Z,10.04
2022-09-28T16:50:21.466Z,10.04
2022-09-28T16:53:28.135Z,9.98
2022-09-28T16:55:54.992Z,9.95
2022-09-28T16:58:22.411Z,9.81
2022-09-28T17:00:49.110Z,9.79
2022-09-28T17:03:18.643Z,9.79
2022-09-28T17:05:46.644Z,9.75
2022-09-28T17:08:17.507Z,9.87
2022-09-28T17:11:12.889Z,9.63
2022-09-28T17:13:37.967Z,9.75
2022-09-28T17:16:18.021Z,9.70
2022-09-28T17:18:46.094Z,9.73
2022-09-28T17:21:15.944Z,9.78
2022-09-28T17:23:44.210Z,9.84
2022-09-28T17:26:19.221Z,9.78
2022-09-28T17:28:46.474Z,9.78
2022-09-28T17:31:27.024Z,9.78
2022-09-28T17:33:54.647Z,9.52
2022-09-28T17:36:27.145Z,9.23
2022-09-28T17:38:53.963Z,8.94
2022-09-28T17:41:21.278Z,8.93
2022-09-28T17:43:49.013Z,9.04
2022-09-28T17:46:30.415Z,8.90
2022-09-28T17:49:01.620Z,8.90
2022-09-28T17:51:35.027Z,8.66
2022-09-28T17:54:02.261Z,8.49
2022-09-28T17:56:32.109Z,8.66
2022-09-28T17:59:04.944Z,8.60
2022-09-28T18:01:34.737Z,8.65
2022-09-28T18:04:03.628Z,8.63
2022-09-28T18:06:33.714Z,8.78
2022-09-28T18:09:02.929Z,8.88
2022-09-28T18:11:30.754Z,9.01
2022-09-28T18:13:57.697Z,9.19
2022-09-28T18:16:25.078Z,9.13
2022-09-28T18:18:52.050Z,9.01
2022-09-28T18:21:18.927Z,8.93
2022-09-28T18:23:45.826Z,8.72
2022-09-28T18:26:14.042Z,8.91
2022-09-28T18:28:41.116Z,8.81
2022-09-28T18:31:09.687Z,8.81
2022-09-28T18:33:37.018Z,8.85
2022-09-28T18:36:05.061Z,8.86
2022-09-28T18:38:32.401Z,8.74
2022-09-28T18:41:16.782Z,8.56
2022-09-28T18:43:49.169Z,8.51
2022-09-28T18:46:18.299Z,8.40
2022-09-28T18:48:48.009Z,8.45
2022-09-28T18:51:15.267Z,8.44
2022-09-28T18:53:42.161Z,8.43
2022-09-28T18:56:11.106Z,8.40
2022-09-28T18:58:39.163Z,8.38
2022-09-28T19:01:28.917Z,8.37
2022-09-28T19:03:59.451Z,8.42
2022-09-28T19:06:26.160Z,8.57
2022-09-28T19:08:53.967Z,8.44
2022-09-28T19:11:20.741Z,8.57
2022-09-28T19:13:48.158Z,8.62
2022-09-28T19:16:21.082Z,8.67
2022-09-28T19:18:48.065Z,8.68
2022-09-28T19:21:16.233Z,8.72
2022-09-28T19:23:48.972Z,8.70
2022-09-28T19:26:18.993Z,8.75
2022-09-28T19:28:45.825Z,8.87
2022-09-28T19:31:13.212Z,8.90
2022-09-28T19:33:41.185Z,8.66
2022-09-28T19:36:10.412Z,8.55
2022-09-28T19:38:38.417Z,8.64
2022-09-28T19:41:10.118Z,8.52
2022-09-28T19:43:37.285Z,8.33
2022-09-28T19:46:08.391Z,8.30
2022-09-28T19:48:35.605Z,8.36
2022-09-28T19:51:07.444Z,8.29
2022-09-28T19:53:38.621Z,8.37
2022-09-28T19:56:05.720Z,8.32
2022-09-28T19:58:35.204Z,8.50
2022-09-28T20:01:06.647Z,8.51
2022-09-28T20:03:34.587Z,8.60
2022-09-28T20:06:04.832Z,8.60
2022-09-28T20:08:31.561Z,8.50
2022-09-28T20:11:00.051Z,8.46
2022-09-28T20:13:32.017Z,8.54
2022-09-28T20:16:14.683Z,8.53
2022-09-28T20:18:44.491Z,8.44
2022-09-28T20:21:18.137Z,8.51
2022-09-28T20:23:45.876Z,8.47
2022-09-28T20:26:13.312Z,8.52
2022-09-28T20:28:40.966Z,8.47
2022-09-28T20:31:14.005Z,8.52
2022-09-28T20:33:42.788Z,8.60
2022-09-28T20:36:12.039Z,8.69
2022-09-28T20:38:40.637Z,8.70
2022-09-28T20:41:08.640Z,8.70
2022-09-28T20:43:35.433Z,8.70
2022-09-28T20:46:03.294Z,8.58
2022-09-28T20:48:30.505Z,8.54
2022-09-28T20:51:03.043Z,8.64
2022-09-28T20:53:30.638Z,8.79
2022-09-28T20:56:06.312Z,8.77
2022-09-28T20:58:33.437Z,8.83
2022-09-28T21:01:12.544Z,8.90
2022-09-28T21:03:39.654Z,8.90
2022-09-28T21:06:12.302Z,8.90
2022-09-28T21:08:39.155Z,8.99
2022-09-28T21:11:07.338Z,9.04
2022-09-28T21:13:34.156Z,9.07
2022-09-28T21:16:02.181Z,9.00
2022-09-28T21:18:31.577Z,8.98
2022-09-28T21:20:58.355Z,8.92
2022-09-28T21:23:25.264Z,8.89
2022-09-28T21:26:03.884Z,8.86
2022-09-28T21:28:30.583Z,8.67
2022-09-28T21:30:57.497Z,8.63
2022-09-28T21:33:24.287Z,8.71
2022-09-28T21:35:51.070Z,8.67
2022-09-28T21:38:17.776Z,8.74
2022-09-28T21:40:44.506Z,8.63
2022-09-28T21:43:11.448Z,8.57
2022-09-28T21:45:38.833Z,8.40
2022-09-28T21:48:05.653Z,8.44
2022-09-28T21:50:32.707Z,8.52
2022-09-28T21:53:00.589Z,8.46
2022-09-28T21:55:27.421Z,8.35
2022-09-28T21:57:54.150Z,8.36
2022-09-28T22:00:23.376Z,8.27
2022-09-28T22:02:53.339Z,8.22
2022-09-28T22:05:20.202Z,8.15
2022-09-28T22:07:47.265Z,7.96
2022-09-28T22:10:15.163Z,8.10
2022-09-28T22:12:42.134Z,7.99
2022-09-28T22:15:11.430Z,8.09
2022-09-28T22:17:38.212Z,8.15
2022-09-28T22:20:05.585Z,8.24
2022-09-28T22:22:32.425Z,8.17
2022-09-28T22:24:59.194Z,8.31
2022-09-28T22:27:25.987Z,8.15
2022-09-28T22:29:52.669Z,8.24
2022-09-28T22:32:19.410Z,8.27
2022-09-28T22:34:46.248Z,8.25
2022-09-28T22:37:12.971Z,8.21
2022-09-28T22:39:41.179Z,8.32
2022-09-28T22:42:08.437Z,8.49
2022-09-28T22:44:35.940Z,8.48
2022-09-28T22:47:03.331Z,8.37
2022-09-28T22:49:32.813Z,8.35
2022-09-28T22:51:59.583Z,8.35
2022-09-28T22:54:26.332Z,8.33
2022-09-28T22:56:53.111Z,8.22
2022-09-28T22:59:19.956Z,8.41
2022-09-28T23:01:47.105Z,8.29
2022-09-28T23:04:13.917Z,8.37
2022-09-28T23:06:41.350Z,8.44
2022-09-28T23:09:08.323Z,8.47
2022-09-28T23:11:35.070Z,8.50
2022-09-28T23:14:01.784Z,8.42
2022-09-28T23:16:30.091Z,8.52
2022-09-28T23:18:57.167Z,8.60
2022-09-28T23:21:26.060Z,8.65
2022-09-28T23:23:54.873Z,8.66
2022-09-28T23:26:24.356Z,8.63
2022-09-28T23:28:51.799Z,8.70
2022-09-28T23:31:21.731Z,8.71
2022-09-28T23:33:48.991Z,8.73
2022-09-28T23:36:16.625Z,8.67
2022-09-28T23:38:43.541Z,8.62
2022-09-28T23:41:10.699Z,8.44
2022-09-28T23:43:37.441Z,8.35
2022-09-28T23:46:05.209Z,8.49
2022-09-28T23:48:32.468Z,8.50
2022-09-28T23:50:59.271Z,8.55
2022-09-28T23:53:26.365Z,8.43
2022-09-28T23:55:53.166Z,8.51
2022-09-28T23:58:20.009Z,8.48
